sensor_id;sensor_type;location;lat;lon;timestamp;P1;durP1;ratioP1;P2;durP2;ratioP2
20084;SDS011;10202;48.474;9.138;2022-10-19T00:01:16;10.55;;;5.60;;
20084;SDS011;10202;48.474;9.138;2022-10-19T00:03:44;12.07;;;6.53;;
20084;SDS011;10202;48.474;9.138;2022-10-19T00:11:35;12.13;;;5.53;;
20084;SDS011;10202;48.474;9.138;2022-10-19T00:14:05;7.75;;;5.28;;
20084;SDS011;10202;48.474;9.138;2022-10-19T00:16:33;7.85;;;5.63;;
20084;SDS011;10202;48.474;9.138;2022-10-19T00:19:01;10.73;;;5.85;;
20084;SDS011;10202;48.474;9.138;2022-10-19T00:21:31;11.07;;;5.43;;
20084;SDS011;10202;48.474;9.138;2022-10-19T00:23:57;12.50;;;5.50;;
20084;SDS011;10202;48.474;9.138;2022-10-19T00:26:28;16.90;;;7.35;;
20084;SDS011;10202;48.474;9.138;2022-10-19T00:28:54;22.15;;;7.90;;
20084;SDS011;10202;48.474;9.138;2022-10-19T00:31:20;22.00;;;8.35;;
20084;SDS011;10202;48.474;9.138;2022-10-19T00:33:50;22.20;;;9.43;;
20084;SDS011;10202;48.474;9.138;2022-10-19T00:36:19;40.92;;;10.25;;
20084;SDS011;10202;48.474;9.138;2022-10-19T00:38:46;47.28;;;10.13;;
20084;SDS011;10202;48.474;9.138;2022-10-19T00:41:12;32.88;;;10.00;;
20084;SDS011;10202;48.474;9.138;2022-10-19T00:46:35;31.63;;;9.52;;
20084;SDS011;10202;48.474;9.138;2022-10-19T00:51:54;26.42;;;10.07;;
20084;SDS011;10202;48.474;9.138;2022-10-19T00:54:26;47.25;;;11.40;;
20084;SDS011;10202;48.474;9.138;2022-10-19T00:56:52;45.03;;;11.73;;
20084;SDS011;10202;48.474;9.138;2022-10-19T00:59:19;38.63;;;9.93;;
20084;SDS011;10202;48.474;9.138;2022-10-19T01:01:49;28.13;;;10.82;;
20084;SDS011;10202;48.474;9.138;2022-10-19T01:04:19;27.20;;;10.55;;
20084;SDS011;10202;48.474;9.138;2022-10-19T01:06:46;26.88;;;9.32;;
20084;SDS011;10202;48.474;9.138;2022-10-19T01:09:12;18.55;;;8.57;;
20084;SDS011;10202;48.474;9.138;2022-10-19T01:18:32;17.73;;;7.50;;
20084;SDS011;10202;48.474;9.138;2022-10-19T01:33:26;32.88;;;8.07;;
20084;SDS011;10202;48.474;9.138;2022-10-19T01:35:54;21.02;;;8.18;;
20084;SDS011;10202;48.474;9.138;2022-10-19T01:45:14;42.03;;;8.48;;
20084;SDS011;10202;48.474;9.138;2022-10-19T01:51:17;19.30;;;6.65;;
20084;SDS011;10202;48.474;9.138;2022-10-19T01:53:56;28.95;;;7.18;;
20084;SDS011;10202;48.474;9.138;2022-10-19T01:56:28;29.60;;;7.00;;
20084;SDS011;10202;48.474;9.138;2022-10-19T01:58:56;17.27;;;7.72;;
20084;SDS011;10202;48.474;9.138;2022-10-19T02:01:27;17.23;;;6.45;;
20084;SDS011;10202;48.474;9.138;2022-10-19T02:04:00;40.30;;;6.88;;
20084;SDS011;10202;48.474;9.138;2022-10-19T02:06:26;35.58;;;7.40;;
20084;SDS011;10202;48.474;9.138;2022-10-19T02:08:52;30.27;;;6.93;;
20084;SDS011;10202;48.474;9.138;2022-10-19T02:11:21;24.63;;;6.30;;
20084;SDS011;10202;48.474;9.138;2022-10-19T02:19:35;17.77;;;4.88;;
20084;SDS011;10202;48.474;9.138;2022-10-19T02:22:05;19.48;;;4.80;;
20084;SDS011;10202;48.474;9.138;2022-10-19T02:24:31;11.40;;;5.07;;
20084;SDS011;10202;48.474;9.138;2022-10-19T02:26:59;16.42;;;5.72;;
20084;SDS011;10202;48.474;9.138;2022-10-19T02:29:31;15.90;;;5.30;;
20084;SDS011;10202;48.474;9.138;2022-10-19T02:31:57;14.20;;;5.40;;
20084;SDS011;10202;48.474;9.138;2022-10-19T02:34:23;16.20;;;4.40;;
20084;SDS011;10202;48.474;9.138;2022-10-19T02:36:51;8.52;;;4.72;;
20084;SDS011;10202;48.474;9.138;2022-10-19T02:39:21;14.43;;;4.00;;
20084;SDS011;10202;48.474;9.138;2022-10-19T02:44:46;5.25;;;4.53;;
20084;SDS011;10202;48.474;9.138;2022-10-19T02:47:17;8.07;;;4.97;;
20084;SDS011;10202;48.474;9.138;2022-10-19T02:49:45;8.32;;;4.43;;
20084;SDS011;10202;48.474;9.138;2022-10-19T02:52:11;5.43;;;4.82;;
20084;SDS011;10202;48.474;9.138;2022-10-19T02:54:40;9.68;;;4.55;;
20084;SDS011;10202;48.474;9.138;2022-10-19T02:59:58;5.65;;;4.45;;
20084;SDS011;10202;48.474;9.138;2022-10-19T03:02:30;11.13;;;4.72;;
20084;SDS011;10202;48.474;9.138;2022-10-19T03:04:55;19.65;;;4.80;;
20084;SDS011;10202;48.474;9.138;2022-10-19T03:07:23;35.38;;;5.00;;
20084;SDS011;10202;48.474;9.138;2022-10-19T03:09:51;14.48;;;4.93;;
20084;SDS011;10202;48.474;9.138;2022-10-19T03:12:19;11.82;;;4.68;;
20084;SDS011;10202;48.474;9.138;2022-10-19T03:14:44;21.13;;;5.22;;
20084;SDS011;10202;48.474;9.138;2022-10-19T03:17:10;11.48;;;5.10;;
20084;SDS011;10202;48.474;9.138;2022-10-19T03:19:38;6.10;;;4.55;;
20084;SDS011;10202;48.474;9.138;2022-10-19T03:22:03;16.13;;;4.10;;
20084;SDS011;10202;48.474;9.138;2022-10-19T03:24:29;11.73;;;4.57;;
20084;SDS011;10202;48.474;9.138;2022-10-19T03:27:00;16.75;;;4.18;;
20084;SDS011;10202;48.474;9.138;2022-10-19T03:29:26;9.90;;;4.00;;
20084;SDS011;10202;48.474;9.138;2022-10-19T03:31:54;6.93;;;3.75;;
20084;SDS011;10202;48.474;9.138;2022-10-19T03:34:21;5.43;;;3.92;;
20084;SDS011;10202;48.474;9.138;2022-10-19T03:36:49;7.30;;;4.20;;
20084;SDS011;10202;48.474;9.138;2022-10-19T03:39:17;9.80;;;4.43;;
20084;SDS011;10202;48.474;9.138;2022-10-19T03:41:42;8.13;;;4.65;;
20084;SDS011;10202;48.474;9.138;2022-10-19T03:44:09;6.50;;;4.32;;
20084;SDS011;10202;48.474;9.138;2022-10-19T03:46:35;8.75;;;4.20;;
20084;SDS011;10202;48.474;9.138;2022-10-19T03:49:03;18.20;;;5.13;;
20084;SDS011;10202;48.474;9.138;2022-10-19T03:51:29;25.85;;;4.78;;
20084;SDS011;10202;48.474;9.138;2022-10-19T03:56:49;40.75;;;4.88;;
20084;SDS011;10202;48.474;9.138;2022-10-19T03:59:17;25.67;;;4.93;;
20084;SDS011;10202;48.474;9.138;2022-10-19T04:01:43;13.63;;;4.50;;
20084;SDS011;10202;48.474;9.138;2022-10-19T04:04:13;13.23;;;4.78;;
20084;SDS011;10202;48.474;9.138;2022-10-19T04:06:40;9.20;;;4.68;;
20084;SDS011;10202;48.474;9.138;2022-10-19T04:09:10;13.73;;;4.47;;
20084;SDS011;10202;48.474;9.138;2022-10-19T04:11:39;12.07;;;4.53;;
20084;SDS011;10202;48.474;9.138;2022-10-19T04:14:05;16.65;;;4.45;;
20084;SDS011;10202;48.474;9.138;2022-10-19T04:16:30;10.27;;;4.28;;
20084;SDS011;10202;48.474;9.138;2022-10-19T04:18:58;19.83;;;4.00;;
20084;SDS011;10202;48.474;9.138;2022-10-19T04:21:28;14.55;;;3.97;;
20084;SDS011;10202;48.474;9.138;2022-10-19T04:23:57;7.82;;;3.38;;
20084;SDS011;10202;48.474;9.138;2022-10-19T04:26:47;12.73;;;3.25;;
20084;SDS011;10202;48.474;9.138;2022-10-19T04:29:17;16.73;;;3.78;;
20084;SDS011;10202;48.474;9.138;2022-10-19T04:31:43;20.55;;;3.95;;
20084;SDS011;10202;48.474;9.138;2022-10-19T04:34:12;10.38;;;3.60;;
20084;SDS011;10202;48.474;9.138;2022-10-19T04:36:43;5.63;;;3.55;;
20084;SDS011;10202;48.474;9.138;2022-10-19T04:39:11;8.30;;;3.50;;
20084;SDS011;10202;48.474;9.138;2022-10-19T04:41:41;7.63;;;3.15;;
20084;SDS011;10202;48.474;9.138;2022-10-19T04:44:08;5.93;;;3.55;;
20084;SDS011;10202;48.474;9.138;2022-10-19T04:46:33;14.13;;;3.25;;
20084;SDS011;10202;48.474;9.138;2022-10-19T04:48:59;10.27;;;2.85;;
20084;SDS011;10202;48.474;9.138;2022-10-19T04:51:25;38.00;;;3.10;;
20084;SDS011;10202;48.474;9.138;2022-10-19T04:53:51;16.48;;;3.05;;
20084;SDS011;10202;48.474;9.138;2022-10-19T04:56:22;12.23;;;2.63;;
20084;SDS011;10202;48.474;9.138;2022-10-19T04:58:53;5.40;;;3.20;;
20084;SDS011;10202;48.474;9.138;2022-10-19T05:01:25;9.75;;;3.30;;
20084;SDS011;10202;48.474;9.138;2022-10-19T05:03:52;8.90;;;3.20;;
20084;SDS011;10202;48.474;9.138;2022-10-19T05:06:43;10.50;;;3.10;;
20084;SDS011;10202;48.474;9.138;2022-10-19T05:09:11;13.45;;;3.10;;
20084;SDS011;10202;48.474;9.138;2022-10-19T05:11:36;10.27;;;2.92;;
20084;SDS011;10202;48.474;9.138;2022-10-19T05:14:04;12.63;;;3.03;;
20084;SDS011;10202;48.474;9.138;2022-10-19T05:16:32;7.70;;;3.03;;
20084;SDS011;10202;48.474;9.138;2022-10-19T05:18:58;11.82;;;2.88;;
20084;SDS011;10202;48.474;9.138;2022-10-19T05:21:26;4.40;;;3.00;;
20084;SDS011;10202;48.474;9.138;2022-10-19T05:23:56;11.93;;;3.80;;
20084;SDS011;10202;48.474;9.138;2022-10-19T05:26:27;24.65;;;3.63;;
20084;SDS011;10202;48.474;9.138;2022-10-19T05:28:55;12.35;;;3.78;;
20084;SDS011;10202;48.474;9.138;2022-10-19T05:31:30;10.55;;;3.72;;
20084;SDS011;10202;48.474;9.138;2022-10-19T05:33:56;18.33;;;4.20;;
20084;SDS011;10202;48.474;9.138;2022-10-19T05:36:28;18.38;;;4.18;;
20084;SDS011;10202;48.474;9.138;2022-10-19T05:38:59;9.90;;;4.05;;
20084;SDS011;10202;48.474;9.138;2022-10-19T05:41:28;4.85;;;4.00;;
20084;SDS011;10202;48.474;9.138;2022-10-19T05:43:59;9.57;;;4.18;;
20084;SDS011;10202;48.474;9.138;2022-10-19T05:46:28;11.07;;;4.20;;
20084;SDS011;10202;48.474;9.138;2022-10-19T05:48:54;7.05;;;4.45;;
20084;SDS011;10202;48.474;9.138;2022-10-19T05:51:25;16.20;;;4.78;;
20084;SDS011;10202;48.474;9.138;2022-10-19T05:53:56;23.17;;;5.07;;
20084;SDS011;10202;48.474;9.138;2022-10-19T05:56:25;11.57;;;4.80;;
20084;SDS011;10202;48.474;9.138;2022-10-19T05:58:52;6.68;;;4.78;;
20084;SDS011;10202;48.474;9.138;2022-10-19T06:01:21;21.30;;;5.18;;
20084;SDS011;10202;48.474;9.138;2022-10-19T06:03:49;19.63;;;5.25;;
20084;SDS011;10202;48.474;9.138;2022-10-19T06:06:16;20.15;;;4.45;;
20084;SDS011;10202;48.474;9.138;2022-10-19T06:08:41;15.40;;;4.68;;
20084;SDS011;10202;48.474;9.138;2022-10-19T06:11:08;10.20;;;4.90;;
20084;SDS011;10202;48.474;9.138;2022-10-19T06:13:35;9.07;;;4.45;;
20084;SDS011;10202;48.474;9.138;2022-10-19T06:16:01;14.82;;;5.03;;
20084;SDS011;10202;48.474;9.138;2022-10-19T06:18:27;9.52;;;4.00;;
20084;SDS011;10202;48.474;9.138;2022-10-19T06:20:53;15.05;;;4.40;;
20084;SDS011;10202;48.474;9.138;2022-10-19T06:23:22;9.63;;;4.05;;
20084;SDS011;10202;48.474;9.138;2022-10-19T06:25:47;9.65;;;4.47;;
20084;SDS011;10202;48.474;9.138;2022-10-19T06:28:12;9.00;;;4.47;;
20084;SDS011;10202;48.474;9.138;2022-10-19T06:30:38;23.08;;;4.88;;
20084;SDS011;10202;48.474;9.138;2022-10-19T06:33:04;7.10;;;4.95;;
20084;SDS011;10202;48.474;9.138;2022-10-19T06:35:30;11.73;;;5.00;;
20084;SDS011;10202;48.474;9.138;2022-10-19T06:38:00;7.28;;;5.28;;
20084;SDS011;10202;48.474;9.138;2022-10-19T06:40:28;10.57;;;5.40;;
20084;SDS011;10202;48.474;9.138;2022-10-19T06:42:56;16.65;;;5.70;;
20084;SDS011;10202;48.474;9.138;2022-10-19T06:45:28;20.55;;;6.15;;
20084;SDS011;10202;48.474;9.138;2022-10-19T06:47:55;18.15;;;6.57;;
20084;SDS011;10202;48.474;9.138;2022-10-19T06:50:23;8.30;;;6.05;;
20084;SDS011;10202;48.474;9.138;2022-10-19T06:52:49;15.80;;;5.90;;
20084;SDS011;10202;48.474;9.138;2022-10-19T06:55:16;21.90;;;5.80;;
20084;SDS011;10202;48.474;9.138;2022-10-19T06:57:44;15.90;;;6.18;;
20084;SDS011;10202;48.474;9.138;2022-10-19T07:00:12;15.38;;;6.20;;
20084;SDS011;10202;48.474;9.138;2022-10-19T07:02:40;8.95;;;6.05;;
20084;SDS011;10202;48.474;9.138;2022-10-19T07:05:10;11.93;;;6.65;;
20084;SDS011;10202;48.474;9.138;2022-10-19T07:07:36;14.38;;;6.32;;
20084;SDS011;10202;48.474;9.138;2022-10-19T07:10:03;14.75;;;6.40;;
20084;SDS011;10202;48.474;9.138;2022-10-19T07:12:34;11.80;;;7.60;;
20084;SDS011;10202;48.474;9.138;2022-10-19T07:14:59;11.43;;;6.50;;
20084;SDS011;10202;48.474;9.138;2022-10-19T07:17:25;11.48;;;6.45;;
20084;SDS011;10202;48.474;9.138;2022-10-19T07:19:50;8.55;;;6.18;;
20084;SDS011;10202;48.474;9.138;2022-10-19T07:22:18;8.32;;;6.00;;
20084;SDS011;10202;48.474;9.138;2022-10-19T07:24:44;8.93;;;6.47;;
20084;SDS011;10202;48.474;9.138;2022-10-19T07:27:12;13.88;;;6.65;;
20084;SDS011;10202;48.474;9.138;2022-10-19T07:29:38;9.38;;;6.40;;
20084;SDS011;10202;48.474;9.138;2022-10-19T07:32:03;11.18;;;7.85;;
20084;SDS011;10202;48.474;9.138;2022-10-19T07:34:31;12.20;;;7.05;;
20084;SDS011;10202;48.474;9.138;2022-10-19T07:37:01;16.33;;;8.40;;
20084;SDS011;10202;48.474;9.138;2022-10-19T07:39:29;15.40;;;7.85;;
20084;SDS011;10202;48.474;9.138;2022-10-19T07:41:54;13.55;;;7.32;;
20084;SDS011;10202;48.474;9.138;2022-10-19T07:44:20;14.57;;;7.43;;
20084;SDS011;10202;48.474;9.138;2022-10-19T07:46:48;12.30;;;7.20;;
20084;SDS011;10202;48.474;9.138;2022-10-19T07:49:15;10.70;;;7.20;;
20084;SDS011;10202;48.474;9.138;2022-10-19T07:51:43;9.75;;;6.85;;
20084;SDS011;10202;48.474;9.138;2022-10-19T07:54:12;9.32;;;6.70;;
20084;SDS011;10202;48.474;9.138;2022-10-19T07:56:42;9.90;;;7.13;;
20084;SDS011;10202;48.474;9.138;2022-10-19T07:59:10;13.40;;;7.13;;
20084;SDS011;10202;48.474;9.138;2022-10-19T08:01:40;10.80;;;7.32;;
20084;SDS011;10202;48.474;9.138;2022-10-19T08:04:10;10.57;;;7.30;;
20084;SDS011;10202;48.474;9.138;2022-10-19T08:06:36;10.30;;;7.00;;
20084;SDS011;10202;48.474;9.138;2022-10-19T08:09:06;9.75;;;6.68;;
20084;SDS011;10202;48.474;9.138;2022-10-19T08:11:34;8.65;;;6.45;;
20084;SDS011;10202;48.474;9.138;2022-10-19T08:14:07;9.52;;;6.80;;
20084;SDS011;10202;48.474;9.138;2022-10-19T08:21:56;10.05;;;7.00;;
20084;SDS011;10202;48.474;9.138;2022-10-19T08:24:21;13.35;;;7.18;;
20084;SDS011;10202;48.474;9.138;2022-10-19T08:26:49;9.50;;;7.10;;
20084;SDS011;10202;48.474;9.138;2022-10-19T08:29:18;10.23;;;6.82;;
20084;SDS011;10202;48.474;9.138;2022-10-19T08:31:47;15.35;;;7.38;;
20084;SDS011;10202;48.474;9.138;2022-10-19T08:34:13;12.07;;;7.32;;
20084;SDS011;10202;48.474;9.138;2022-10-19T08:36:39;9.25;;;6.57;;
20084;SDS011;10202;48.474;9.138;2022-10-19T08:39:07;8.88;;;6.55;;
20084;SDS011;10202;48.474;9.138;2022-10-19T08:50:59;11.30;;;6.78;;
20084;SDS011;10202;48.474;9.138;2022-10-19T09:01:47;12.35;;;6.90;;
20084;SDS011;10202;48.474;9.138;2022-10-19T09:07:28;10.68;;;6.93;;
20084;SDS011;10202;48.474;9.138;2022-10-19T09:13:01;9.88;;;6.85;;
20084;SDS011;10202;48.474;9.138;2022-10-19T09:15:33;8.90;;;6.78;;
20084;SDS011;10202;48.474;9.138;2022-10-19T09:18:04;8.52;;;6.63;;
20084;SDS011;10202;48.474;9.138;2022-10-19T09:24:51;9.95;;;6.38;;
20084;SDS011;10202;48.474;9.138;2022-10-19T09:33:05;9.65;;;6.57;;
20084;SDS011;10202;48.474;9.138;2022-10-19T09:35:40;7.70;;;5.80;;
20084;SDS011;10202;48.474;9.138;2022-10-19T09:38:10;11.25;;;6.43;;
20084;SDS011;10202;48.474;9.138;2022-10-19T09:40:38;6.97;;;5.38;;
20084;SDS011;10202;48.474;9.138;2022-10-19T09:43:06;11.25;;;6.45;;
20084;SDS011;10202;48.474;9.138;2022-10-19T09:49:19;13.48;;;6.07;;
20084;SDS011;10202;48.474;9.138;2022-10-19T09:52:03;8.35;;;6.00;;
20084;SDS011;10202;48.474;9.138;2022-10-19T09:57:59;8.52;;;5.10;;
20084;SDS011;10202;48.474;9.138;2022-10-19T10:00:51;6.05;;;4.50;;
20084;SDS011;10202;48.474;9.138;2022-10-19T10:03:40;6.50;;;4.85;;
20084;SDS011;10202;48.474;9.138;2022-10-19T10:06:09;7.15;;;5.35;;
20084;SDS011;10202;48.474;9.138;2022-10-19T10:08:38;7.22;;;4.95;;
20084;SDS011;10202;48.474;9.138;2022-10-19T10:17:15;8.10;;;4.57;;
20084;SDS011;10202;48.474;9.138;2022-10-19T10:25:37;6.15;;;3.90;;
20084;SDS011;10202;48.474;9.138;2022-10-19T10:28:04;4.10;;;3.20;;
20084;SDS011;10202;48.474;9.138;2022-10-19T10:30:45;5.22;;;3.78;;
20084;SDS011;10202;48.474;9.138;2022-10-19T10:38:50;6.47;;;4.82;;
20084;SDS011;10202;48.474;9.138;2022-10-19T10:41:21;11.03;;;5.33;;
20084;SDS011;10202;48.474;9.138;2022-10-19T10:49:39;10.25;;;6.50;;
20084;SDS011;10202;48.474;9.138;2022-10-19T10:52:11;13.82;;;6.38;;
20084;SDS011;10202;48.474;9.138;2022-10-19T10:54:38;12.50;;;6.45;;
20084;SDS011;10202;48.474;9.138;2022-10-19T11:14:29;7.88;;;5.00;;
20084;SDS011;10202;48.474;9.138;2022-10-19T11:16:56;11.05;;;5.22;;
20084;SDS011;10202;48.474;9.138;2022-10-19T11:19:24;7.97;;;5.32;;
20084;SDS011;10202;48.474;9.138;2022-10-19T11:21:54;8.63;;;5.32;;
20084;SDS011;10202;48.474;9.138;2022-10-19T11:28:37;6.68;;;4.82;;
20084;SDS011;10202;48.474;9.138;2022-10-19T11:30:54;11.85;;;5.18;;
20084;SDS011;10202;48.474;9.138;2022-10-19T11:43:11;5.90;;;4.53;;
20084;SDS011;10202;48.474;9.138;2022-10-19T11:49:34;7.30;;;4.38;;
20084;SDS011;10202;48.474;9.138;2022-10-19T11:53:33;8.10;;;4.43;;
20084;SDS011;10202;48.474;9.138;2022-10-19T12:04:56;11.85;;;4.43;;
20084;SDS011;10202;48.474;9.138;2022-10-19T12:16:57;5.65;;;4.90;;
20084;SDS011;10202;48.474;9.138;2022-10-19T12:22:21;10.43;;;4.18;;
20084;SDS011;10202;48.474;9.138;2022-10-19T12:24:48;9.23;;;4.55;;
20084;SDS011;10202;48.474;9.138;2022-10-19T12:27:15;7.68;;;4.13;;
20084;SDS011;10202;48.474;9.138;2022-10-19T12:29:45;6.80;;;3.83;;
20084;SDS011;10202;48.474;9.138;2022-10-19T12:32:17;10.15;;;4.25;;
20084;SDS011;10202;48.474;9.138;2022-10-19T12:38:10;16.05;;;8.90;;
20084;SDS011;10202;48.474;9.138;2022-10-19T12:41:09;17.92;;;9.27;;
20084;SDS011;10202;48.474;9.138;2022-10-19T12:43:44;17.38;;;9.45;;
20084;SDS011;10202;48.474;9.138;2022-10-19T12:46:31;15.35;;;9.20;;
20084;SDS011;10202;48.474;9.138;2022-10-19T13:01:27;21.05;;;9.63;;
20084;SDS011;10202;48.474;9.138;2022-10-19T13:04:06;16.63;;;8.95;;
20084;SDS011;10202;48.474;9.138;2022-10-19T13:06:34;19.75;;;9.98;;
20084;SDS011;10202;48.474;9.138;2022-10-19T13:09:05;21.13;;;10.57;;
20084;SDS011;10202;48.474;9.138;2022-10-19T13:11:33;23.05;;;10.95;;
20084;SDS011;10202;48.474;9.138;2022-10-19T13:18:12;18.73;;;10.50;;
20084;SDS011;10202;48.474;9.138;2022-10-19T13:29:23;21.23;;;10.32;;
20084;SDS011;10202;48.474;9.138;2022-10-19T13:31:49;15.18;;;9.40;;
20084;SDS011;10202;48.474;9.138;2022-10-19T13:34:15;17.42;;;9.90;;
20084;SDS011;10202;48.474;9.138;2022-10-19T13:36:57;18.10;;;10.00;;
20084;SDS011;10202;48.474;9.138;2022-10-19T13:39:29;17.08;;;9.15;;
20084;SDS011;10202;48.474;9.138;2022-10-19T13:41:56;15.65;;;9.27;;
20084;SDS011;10202;48.474;9.138;2022-10-19T13:44:23;17.02;;;9.68;;
20084;SDS011;10202;48.474;9.138;2022-10-19T13:53:28;18.52;;;9.65;;
20084;SDS011;10202;48.474;9.138;2022-10-19T14:00:53;13.73;;;8.38;;
20084;SDS011;10202;48.474;9.138;2022-10-19T14:12:54;14.77;;;9.50;;
20084;SDS011;10202;48.474;9.138;2022-10-19T14:18:36;14.18;;;9.13;;
20084;SDS011;10202;48.474;9.138;2022-10-19T14:21:06;12.82;;;9.32;;
20084;SDS011;10202;48.474;9.138;2022-10-19T14:23:35;15.10;;;9.70;;
20084;SDS011;10202;48.474;9.138;2022-10-19T14:28:56;15.85;;;9.63;;
20084;SDS011;10202;48.474;9.138;2022-10-19T14:31:24;14.30;;;9.93;;
20084;SDS011;10202;48.474;9.138;2022-10-19T14:33:54;13.10;;;10.05;;
20084;SDS011;10202;48.474;9.138;2022-10-19T14:36:24;15.25;;;10.35;;
20084;SDS011;10202;48.474;9.138;2022-10-19T14:38:56;14.65;;;10.55;;
20084;SDS011;10202;48.474;9.138;2022-10-19T14:44:40;15.95;;;10.65;;
20084;SDS011;10202;48.474;9.138;2022-10-19T14:50:04;15.85;;;10.18;;
20084;SDS011;10202;48.474;9.138;2022-10-19T14:52:33;15.07;;;10.57;;
20084;SDS011;10202;48.474;9.138;2022-10-19T14:55:13;18.67;;;10.00;;
20084;SDS011;10202;48.474;9.138;2022-10-19T14:57:53;13.88;;;9.25;;
20084;SDS011;10202;48.474;9.138;2022-10-19T15:00:21;12.25;;;9.40;;
20084;SDS011;10202;48.474;9.138;2022-10-19T15:02:51;12.07;;;9.05;;
20084;SDS011;10202;48.474;9.138;2022-10-19T15:05:23;13.93;;;9.52;;
20084;SDS011;10202;48.474;9.138;2022-10-19T15:07:50;13.93;;;9.98;;
20084;SDS011;10202;48.474;9.138;2022-10-19T15:12:43;16.58;;;11.57;;
20084;SDS011;10202;48.474;9.138;2022-10-19T15:15:15;14.93;;;10.95;;
20084;SDS011;10202;48.474;9.138;2022-10-19T15:23:46;14.18;;;11.45;;
20084;SDS011;10202;48.474;9.138;2022-10-19T15:31:52;15.57;;;10.70;;
20084;SDS011;10202;48.474;9.138;2022-10-19T15:37:12;13.40;;;10.45;;
20084;SDS011;10202;48.474;9.138;2022-10-19T15:39:44;15.07;;;11.27;;
20084;SDS011;10202;48.474;9.138;2022-10-19T15:45:25;14.02;;;11.10;;
20084;SDS011;10202;48.474;9.138;2022-10-19T15:54:13;15.70;;;11.60;;
20084;SDS011;10202;48.474;9.138;2022-10-19T15:56:46;15.68;;;11.05;;
20084;SDS011;10202;48.474;9.138;2022-10-19T15:59:16;14.93;;;11.57;;
20084;SDS011;10202;48.474;9.138;2022-10-19T16:01:43;14.68;;;11.50;;
20084;SDS011;10202;48.474;9.138;2022-10-19T16:04:12;14.68;;;11.23;;
20084;SDS011;10202;48.474;9.138;2022-10-19T16:06:39;17.25;;;11.95;;
20084;SDS011;10202;48.474;9.138;2022-10-19T16:09:09;14.80;;;11.85;;
20084;SDS011;10202;48.474;9.138;2022-10-19T16:11:38;16.45;;;12.73;;
20084;SDS011;10202;48.474;9.138;2022-10-19T16:14:04;14.95;;;12.30;;
20084;SDS011;10202;48.474;9.138;2022-10-19T16:16:35;16.50;;;12.90;;
20084;SDS011;10202;48.474;9.138;2022-10-19T16:19:06;16.55;;;12.50;;
20084;SDS011;10202;48.474;9.138;2022-10-19T16:21:33;15.63;;;12.40;;
20084;SDS011;10202;48.474;9.138;2022-10-19T16:24:02;15.98;;;12.23;;
20084;SDS011;10202;48.474;9.138;2022-10-19T16:26:30;16.63;;;12.95;;
20084;SDS011;10202;48.474;9.138;2022-10-19T16:28:58;15.50;;;11.88;;
20084;SDS011;10202;48.474;9.138;2022-10-19T16:31:29;15.93;;;11.75;;
20084;SDS011;10202;48.474;9.138;2022-10-19T16:33:55;14.05;;;11.60;;
20084;SDS011;10202;48.474;9.138;2022-10-19T16:36:23;14.65;;;11.30;;
20084;SDS011;10202;48.474;9.138;2022-10-19T16:38:51;18.10;;;11.95;;
20084;SDS011;10202;48.474;9.138;2022-10-19T16:41:22;16.27;;;11.70;;
20084;SDS011;10202;48.474;9.138;2022-10-19T16:43:52;14.15;;;11.23;;
20084;SDS011;10202;48.474;9.138;2022-10-19T16:46:19;20.25;;;11.18;;
20084;SDS011;10202;48.474;9.138;2022-10-19T16:48:50;13.60;;;11.65;;
20084;SDS011;10202;48.474;9.138;2022-10-19T16:54:10;15.38;;;11.65;;
20084;SDS011;10202;48.474;9.138;2022-10-19T16:56:41;17.30;;;13.05;;
20084;SDS011;10202;48.474;9.138;2022-10-19T16:59:14;16.83;;;12.95;;
20084;SDS011;10202;48.474;9.138;2022-10-19T17:01:41;21.58;;;12.38;;
20084;SDS011;10202;48.474;9.138;2022-10-19T17:04:08;14.98;;;12.07;;
20084;SDS011;10202;48.474;9.138;2022-10-19T17:06:35;17.05;;;13.07;;
20084;SDS011;10202;48.474;9.138;2022-10-19T17:09:00;19.58;;;12.15;;
20084;SDS011;10202;48.474;9.138;2022-10-19T17:11:27;14.75;;;11.52;;
20084;SDS011;10202;48.474;9.138;2022-10-19T17:13:55;20.90;;;11.85;;
20084;SDS011;10202;48.474;9.138;2022-10-19T17:16:22;16.70;;;11.10;;
20084;SDS011;10202;48.474;9.138;2022-10-19T17:18:54;16.02;;;12.30;;
20084;SDS011;10202;48.474;9.138;2022-10-19T17:21:21;21.40;;;12.75;;
20084;SDS011;10202;48.474;9.138;2022-10-19T17:24:14;20.08;;;12.90;;
20084;SDS011;10202;48.474;9.138;2022-10-19T17:26:43;19.42;;;12.85;;
20084;SDS011;10202;48.474;9.138;2022-10-19T17:29:31;17.25;;;12.93;;
20084;SDS011;10202;48.474;9.138;2022-10-19T17:31:57;16.63;;;12.88;;
20084;SDS011;10202;48.474;9.138;2022-10-19T17:34:26;21.13;;;13.13;;
20084;SDS011;10202;48.474;9.138;2022-10-19T17:36:51;17.98;;;13.15;;
20084;SDS011;10202;48.474;9.138;2022-10-19T17:39:18;14.88;;;12.05;;
20084;SDS011;10202;48.474;9.138;2022-10-19T17:41:45;16.38;;;11.90;;
20084;SDS011;10202;48.474;9.138;2022-10-19T17:44:13;16.75;;;12.15;;
20084;SDS011;10202;48.474;9.138;2022-10-19T17:46:39;17.60;;;12.20;;
20084;SDS011;10202;48.474;9.138;2022-10-19T17:49:08;15.32;;;11.63;;
20084;SDS011;10202;48.474;9.138;2022-10-19T17:51:36;17.23;;;11.60;;
20084;SDS011;10202;48.474;9.138;2022-10-19T17:54:03;15.50;;;11.05;;
20084;SDS011;10202;48.474;9.138;2022-10-19T17:56:31;13.73;;;11.10;;
20084;SDS011;10202;48.474;9.138;2022-10-19T17:58:59;14.48;;;10.02;;
20084;SDS011;10202;48.474;9.138;2022-10-19T18:01:27;14.65;;;11.27;;
20084;SDS011;10202;48.474;9.138;2022-10-19T18:03:53;13.00;;;10.27;;
20084;SDS011;10202;48.474;9.138;2022-10-19T18:09:08;17.88;;;11.25;;
20084;SDS011;10202;48.474;9.138;2022-10-19T18:11:38;14.52;;;11.30;;
20084;SDS011;10202;48.474;9.138;2022-10-19T18:14:05;16.38;;;11.45;;
20084;SDS011;10202;48.474;9.138;2022-10-19T18:19:28;10.30;;;8.90;;
20084;SDS011;10202;48.474;9.138;2022-10-19T18:21:53;10.65;;;8.52;;
20084;SDS011;10202;48.474;9.138;2022-10-19T18:24:21;10.25;;;8.27;;
20084;SDS011;10202;48.474;9.138;2022-10-19T18:26:48;14.45;;;8.52;;
20084;SDS011;10202;48.474;9.138;2022-10-19T18:29:15;13.95;;;7.53;;
20084;SDS011;10202;48.474;9.138;2022-10-19T18:31:45;10.15;;;7.50;;
20084;SDS011;10202;48.474;9.138;2022-10-19T18:34:18;8.80;;;6.97;;
20084;SDS011;10202;48.474;9.138;2022-10-19T18:36:50;12.15;;;7.60;;
20084;SDS011;10202;48.474;9.138;2022-10-19T18:39:18;9.68;;;6.65;;
20084;SDS011;10202;48.474;9.138;2022-10-19T18:41:49;7.80;;;6.60;;
20084;SDS011;10202;48.474;9.138;2022-10-19T18:44:20;8.20;;;6.63;;
20084;SDS011;10202;48.474;9.138;2022-10-19T18:46:49;8.00;;;6.80;;
20084;SDS011;10202;48.474;9.138;2022-10-19T18:49:19;9.23;;;6.95;;
20084;SDS011;10202;48.474;9.138;2022-10-19T18:51:45;13.63;;;7.22;;
20084;SDS011;10202;48.474;9.138;2022-10-19T18:54:13;9.25;;;6.38;;
20084;SDS011;10202;48.474;9.138;2022-10-19T18:56:40;9.00;;;6.40;;
20084;SDS011;10202;48.474;9.138;2022-10-19T18:59:09;8.48;;;6.15;;
20084;SDS011;10202;48.474;9.138;2022-10-19T19:01:39;11.07;;;6.00;;
20084;SDS011;10202;48.474;9.138;2022-10-19T19:04:05;10.48;;;6.20;;
20084;SDS011;10202;48.474;9.138;2022-10-19T19:06:35;7.07;;;6.13;;
20084;SDS011;10202;48.474;9.138;2022-10-19T19:09:03;7.55;;;5.95;;
20084;SDS011;10202;48.474;9.138;2022-10-19T19:11:32;12.88;;;6.88;;
20084;SDS011;10202;48.474;9.138;2022-10-19T19:16:51;8.45;;;6.80;;
20084;SDS011;10202;48.474;9.138;2022-10-19T19:19:18;15.35;;;7.60;;
20084;SDS011;10202;48.474;9.138;2022-10-19T19:21:48;9.95;;;6.75;;
20084;SDS011;10202;48.474;9.138;2022-10-19T19:24:14;10.07;;;6.95;;
20084;SDS011;10202;48.474;9.138;2022-10-19T19:26:42;9.02;;;7.20;;
20084;SDS011;10202;48.474;9.138;2022-10-19T19:29:10;7.97;;;6.63;;